createdAt,value
2018-11-05T00:00:47.336Z,131.63
2018-11-05T00:03:15.529Z,118.30
2018-11-05T00:05:43.678Z,118.57
2018-11-05T00:08:11.880Z,121.22
2018-11-05T00:10:39.977Z,114.10
2018-11-05T00:13:08.137Z,112.22
2018-11-05T00:15:36.311Z,113.57
2018-11-05T00:18:04.816Z,124.50
2018-11-05T00:20:32.961Z,116.57
2018-11-05T00:23:01.079Z,119.17
2018-11-05T00:25:29.210Z,116.93
2018-11-05T00:27:57.325Z,131.40
2018-11-05T00:30:25.485Z,131.77
2018-11-05T00:32:53.645Z,113.83
2018-11-05T00:35:21.799Z,125.60
2018-11-05T00:37:49.962Z,130.63
2018-11-05T00:40:18.094Z,124.23
2018-11-05T00:42:46.605Z,124.57
2018-11-05T00:45:15.302Z,130.90
2018-11-05T00:47:44.000Z,133.00
2018-11-05T00:50:13.494Z,127.25
2018-11-05T00:52:41.680Z,129.70
2018-11-05T00:55:10.694Z,125.50
2018-11-05T00:57:38.826Z,114.88
2018-11-05T01:00:11.541Z,124.00
2018-11-05T01:02:40.229Z,117.50
2018-11-05T01:05:09.524Z,116.80
2018-11-05T01:07:37.657Z,119.77
2018-11-05T01:10:06.501Z,116.80
2018-11-05T01:12:34.653Z,127.57
2018-11-05T01:15:02.789Z,121.40
2018-11-05T01:17:31.021Z,123.57
2018-11-05T01:19:59.165Z,124.93
2018-11-05T01:22:27.325Z,120.20
2018-11-05T01:24:55.458Z,120.60
2018-11-05T01:27:23.629Z,110.00
2018-11-05T01:29:51.765Z,110.93
2018-11-05T01:32:19.910Z,111.73
2018-11-05T01:34:48.168Z,103.65
2018-11-05T01:37:16.315Z,116.00
2018-11-05T01:39:44.438Z,114.60
2018-11-05T01:42:12.585Z,123.90
2018-11-05T01:44:40.742Z,123.95
2018-11-05T01:47:08.866Z,117.87
2018-11-05T01:49:37.052Z,124.87
2018-11-05T01:52:05.875Z,108.73
2018-11-05T01:54:33.990Z,127.10
2018-11-05T01:57:02.109Z,107.63
2018-11-05T01:59:30.197Z,121.37
2018-11-05T02:01:58.317Z,114.90
2018-11-05T02:04:26.396Z,121.25
2018-11-05T02:06:54.503Z,129.07
2018-11-05T02:09:22.596Z,117.30
2018-11-05T02:11:50.706Z,131.70
2018-11-05T02:14:18.810Z,124.03
2018-11-05T02:16:46.868Z,123.53
2018-11-05T02:19:15.004Z,130.67
2018-11-05T02:21:43.099Z,143.10
2018-11-05T02:24:11.192Z,123.80
2018-11-05T02:26:39.287Z,138.10
2018-11-05T02:29:07.392Z,123.50
2018-11-05T02:31:35.473Z,125.03
2018-11-05T02:34:03.576Z,143.45
2018-11-05T02:36:31.636Z,130.15
2018-11-05T02:38:59.755Z,139.70
2018-11-05T02:41:27.852Z,132.95
2018-11-05T02:43:56.128Z,119.30
2018-11-05T02:46:24.220Z,126.60
2018-11-05T02:48:52.323Z,133.57
2018-11-05T02:51:20.445Z,128.85
2018-11-05T02:53:48.553Z,111.72
2018-11-05T02:56:16.675Z,130.05
2018-11-05T02:58:44.796Z,127.70
2018-11-05T03:01:12.907Z,126.20
2018-11-05T03:03:41.160Z,122.02
2018-11-05T03:06:09.282Z,126.77
2018-11-05T03:08:37.344Z,129.47
2018-11-05T03:11:05.466Z,129.90
2018-11-05T03:13:33.544Z,114.57
2018-11-05T03:16:01.628Z,128.87
2018-11-05T03:18:29.728Z,130.27
2018-11-05T03:20:57.855Z,124.00
2018-11-05T03:23:25.962Z,124.53
2018-11-05T03:25:54.064Z,133.57
2018-11-05T03:28:22.180Z,131.82
2018-11-05T03:30:50.283Z,122.60
2018-11-05T03:33:18.400Z,126.42
2018-11-05T03:35:46.613Z,126.23
2018-11-05T03:38:14.616Z,126.20
2018-11-05T03:40:42.729Z,133.83
2018-11-05T03:43:10.836Z,144.40
2018-11-05T03:45:38.996Z,142.83
2018-11-05T03:48:07.097Z,138.90
2018-11-05T03:50:35.175Z,144.20
2018-11-05T03:53:03.321Z,141.27
2018-11-05T03:55:31.540Z,147.20
2018-11-05T03:57:59.600Z,146.20
2018-11-05T04:00:27.692Z,139.17
2018-11-05T04:02:55.794Z,143.43
2018-11-05T04:05:23.940Z,139.63
2018-11-05T04:07:52.040Z,149.10
2018-11-05T04:10:20.128Z,149.63
2018-11-05T04:12:48.193Z,140.13
2018-11-05T04:15:16.307Z,148.47
2018-11-05T04:17:44.408Z,147.10
2018-11-05T04:20:13.652Z,159.50
2018-11-05T04:22:42.558Z,144.83
2018-11-05T04:25:10.704Z,153.33
2018-11-05T04:27:38.847Z,156.97
2018-11-05T04:30:09.548Z,155.13
2018-11-05T04:32:37.824Z,146.87
2018-11-05T04:35:05.928Z,147.23
2018-11-05T04:37:34.041Z,172.02
2018-11-05T04:40:02.117Z,169.50
2018-11-05T04:42:30.212Z,144.47
2018-11-05T04:44:58.320Z,163.97
2018-11-05T04:47:26.446Z,153.15
2018-11-05T04:49:54.572Z,145.57
2018-11-05T04:52:22.701Z,160.72
2018-11-05T04:54:50.812Z,154.20
2018-11-05T04:57:18.916Z,157.73
2018-11-05T04:59:47.050Z,160.20
2018-11-05T05:02:15.155Z,165.83
2018-11-05T05:04:43.266Z,165.63
2018-11-05T05:07:11.368Z,162.97
2018-11-05T05:09:39.444Z,144.60
2018-11-05T05:12:07.544Z,139.73
2018-11-05T05:14:35.956Z,153.97
2018-11-05T05:17:04.029Z,157.80
2018-11-05T05:19:32.135Z,171.00
2018-11-05T05:22:00.205Z,158.87
2018-11-05T05:24:28.363Z,186.30
2018-11-05T05:26:56.464Z,165.87
2018-11-05T05:29:24.633Z,163.63
2018-11-05T05:31:52.791Z,165.47
2018-11-05T05:34:20.907Z,179.40
2018-11-05T05:36:48.989Z,182.80
2018-11-05T05:39:17.120Z,155.90
2018-11-05T05:41:45.228Z,154.70
2018-11-05T05:44:13.312Z,167.80
2018-11-05T05:46:41.409Z,180.30
2018-11-05T05:49:09.520Z,161.90
2018-11-05T05:51:37.644Z,158.70
2018-11-05T05:54:05.947Z,168.13
2018-11-05T05:56:34.033Z,166.43
2018-11-05T05:59:02.120Z,167.47
2018-11-05T06:01:30.221Z,189.13
2018-11-05T06:03:58.352Z,146.10
2018-11-05T06:06:26.485Z,149.10
2018-11-05T06:08:54.556Z,152.27
2018-11-05T06:11:22.675Z,139.83
2018-11-05T06:13:50.811Z,159.17
2018-11-05T06:16:18.976Z,185.93
2018-11-05T06:18:47.082Z,150.43
2018-11-05T06:21:15.187Z,160.60
2018-11-05T06:23:43.429Z,174.73
2018-11-05T06:26:11.516Z,162.23
2018-11-05T06:28:39.724Z,172.80
2018-11-05T06:31:08.248Z,156.90
2018-11-05T06:33:36.344Z,151.65
2018-11-05T06:36:04.924Z,170.37
2018-11-05T06:38:33.081Z,177.75
2018-11-05T06:41:01.521Z,156.65
2018-11-05T06:43:29.564Z,166.43
2018-11-05T06:45:57.708Z,160.88
2018-11-05T06:48:25.802Z,151.10
2018-11-05T06:50:53.932Z,156.70
2018-11-05T06:53:22.096Z,150.03
2018-11-05T06:55:50.235Z,165.17
2018-11-05T06:58:18.360Z,150.25
2018-11-05T07:00:46.492Z,176.43
2018-11-05T07:03:14.591Z,150.40
2018-11-05T07:05:42.861Z,155.67
2018-11-05T07:08:11.032Z,154.03
2018-11-05T07:10:39.240Z,150.40
2018-11-05T07:13:09.899Z,146.47
2018-11-05T07:15:40.032Z,152.70
2018-11-05T07:18:08.451Z,171.17
2018-11-05T07:20:36.565Z,154.53
2018-11-05T07:23:04.697Z,126.93
2018-11-05T07:25:32.823Z,144.20
2018-11-05T07:28:00.924Z,142.43
2018-11-05T07:30:29.052Z,164.20
2018-11-05T07:32:57.159Z,137.75
2018-11-05T07:35:25.251Z,136.97
2018-11-05T07:37:53.369Z,134.03
2018-11-05T07:40:21.553Z,137.80
2018-11-05T07:42:49.701Z,126.78
2018-11-05T07:45:19.089Z,134.57
2018-11-05T07:47:47.692Z,129.90
2018-11-05T07:50:16.769Z,128.37
2018-11-05T07:52:44.811Z,130.63
2018-11-05T07:55:14.194Z,128.40
2018-11-05T07:57:43.481Z,123.27
2018-11-05T08:00:18.270Z,130.70
2018-11-05T08:02:47.383Z,125.40
2018-11-05T08:05:16.407Z,139.10
2018-11-05T08:07:44.744Z,109.13
2018-11-05T08:10:12.887Z,125.00
2018-11-05T08:12:41.761Z,112.93
2018-11-05T08:15:13.132Z,101.90
2018-11-05T08:17:41.891Z,105.10
2018-11-05T08:20:10.481Z,98.37
2018-11-05T08:22:38.779Z,102.92
2018-11-05T08:25:06.951Z,100.62
2018-11-05T08:27:35.355Z,94.90
2018-11-05T08:30:03.491Z,94.27
2018-11-05T08:32:31.640Z,97.57
2018-11-05T08:34:59.975Z,91.70
2018-11-05T08:37:28.088Z,85.13
2018-11-05T08:39:56.250Z,98.03
2018-11-05T08:42:24.381Z,94.53
2018-11-05T08:44:52.744Z,87.47
2018-11-05T08:47:20.990Z,81.32
2018-11-05T08:49:49.105Z,77.20
2018-11-05T08:52:17.213Z,82.42
2018-11-05T08:54:45.330Z,81.57
2018-11-05T08:57:13.477Z,85.63
2018-11-05T08:59:41.661Z,85.37
2018-11-05T09:02:09.785Z,84.77
2018-11-05T09:04:38.010Z,73.37
2018-11-05T09:07:07.778Z,81.67
2018-11-05T09:09:35.935Z,80.47
2018-11-05T09:12:04.070Z,77.55
2018-11-05T09:14:32.230Z,82.20
2018-11-05T09:17:00.612Z,76.60
2018-11-05T09:19:28.738Z,84.50
2018-11-05T09:21:56.867Z,83.00
2018-11-05T09:24:25.008Z,83.37
2018-11-05T09:26:53.120Z,92.67
2018-11-05T09:29:21.252Z,76.85
2018-11-05T09:31:49.407Z,75.90
2018-11-05T09:34:17.643Z,82.80
2018-11-05T09:36:45.765Z,73.97
2018-11-05T09:39:13.872Z,76.37
2018-11-05T09:41:42.021Z,82.93
2018-11-05T09:44:10.200Z,78.30
2018-11-05T09:46:38.300Z,87.57
2018-11-05T09:49:06.740Z,92.30
2018-11-05T09:51:34.867Z,77.53
2018-11-05T09:54:03.005Z,82.00
2018-11-05T09:56:31.155Z,82.23
2018-11-05T09:58:59.288Z,74.60
2018-11-05T10:01:27.463Z,66.57
2018-11-05T10:03:57.186Z,73.97
2018-11-05T10:06:26.271Z,74.90
2018-11-05T10:08:54.455Z,73.78
2018-11-05T10:11:23.202Z,79.70
2018-11-05T10:13:51.360Z,82.92
2018-11-05T10:16:19.794Z,67.03
2018-11-05T10:18:48.083Z,67.60
2018-11-05T10:21:16.486Z,78.93
2018-11-05T10:23:45.739Z,76.80
2018-11-05T10:26:14.328Z,69.17
2018-11-05T10:28:42.807Z,75.53
2018-11-05T10:31:15.196Z,81.00
2018-11-05T10:33:47.556Z,76.80
2018-11-05T10:36:15.637Z,86.60
2018-11-05T10:38:43.784Z,78.13
2018-11-05T10:41:12.686Z,89.50
2018-11-05T10:43:41.382Z,76.70
2018-11-05T10:46:09.880Z,72.93
2018-11-05T10:48:38.810Z,70.97
2018-11-05T10:51:07.057Z,74.50
2018-11-05T10:53:35.651Z,68.27
2018-11-05T10:56:04.526Z,82.85
2018-11-05T10:58:32.923Z,81.50
2018-11-05T11:01:06.484Z,72.73
2018-11-05T11:03:36.101Z,71.53
2018-11-05T11:06:05.204Z,72.53
2018-11-05T11:08:33.705Z,74.03
2018-11-05T11:11:02.111Z,74.63
2018-11-05T11:13:30.320Z,78.07
2018-11-05T11:15:58.447Z,69.60
2018-11-05T11:18:27.248Z,75.97
2018-11-05T11:20:55.695Z,78.02
2018-11-05T11:23:24.103Z,82.77
2018-11-05T11:25:52.626Z,75.43
2018-11-05T11:28:21.222Z,73.40
2018-11-05T11:30:49.914Z,72.77
2018-11-05T11:33:18.506Z,84.35
2018-11-05T11:35:47.107Z,77.30
2018-11-05T11:38:15.257Z,88.52
2018-11-05T11:40:43.355Z,84.77
2018-11-05T11:43:11.484Z,73.62
2018-11-05T11:45:40.323Z,85.75
2018-11-05T11:48:08.466Z,85.42
2018-11-05T11:50:36.598Z,89.90
2018-11-05T11:53:05.371Z,78.65
2018-11-05T11:55:33.633Z,80.93
2018-11-05T11:58:01.650Z,84.40
2018-11-05T12:00:29.805Z,90.40
2018-11-05T12:02:59.177Z,83.30
2018-11-05T12:05:28.099Z,99.37
2018-11-05T12:07:56.446Z,80.17
2018-11-05T12:10:26.439Z,83.50
2018-11-05T12:12:54.825Z,87.03
2018-11-05T12:15:23.788Z,89.40
2018-11-05T12:17:52.864Z,89.20
2018-11-05T12:20:22.313Z,88.43
2018-11-05T12:22:51.032Z,90.87
2018-11-05T12:25:19.170Z,87.27
2018-11-05T12:27:47.334Z,88.33
2018-11-05T12:30:17.841Z,91.17
2018-11-05T12:32:47.543Z,86.82
2018-11-05T12:35:15.657Z,86.27
2018-11-05T12:37:44.979Z,91.50
2018-11-05T12:40:14.735Z,98.57
2018-11-05T12:42:43.911Z,100.70
2018-11-05T12:45:12.175Z,85.57
2018-11-05T12:47:40.466Z,85.83
2018-11-05T12:50:13.535Z,92.57
2018-11-05T12:52:42.250Z,98.50
2018-11-05T12:55:10.935Z,94.77
2018-11-05T12:57:39.044Z,85.27
2018-11-05T13:00:10.109Z,94.00
2018-11-05T13:02:38.241Z,88.57
2018-11-05T13:05:07.396Z,91.53
2018-11-05T13:07:35.592Z,83.03
2018-11-05T13:10:03.754Z,89.50
2018-11-05T13:12:31.860Z,92.25
2018-11-05T13:14:59.973Z,91.17
2018-11-05T13:17:28.070Z,106.15
2018-11-05T13:19:56.191Z,98.52
2018-11-05T13:22:24.447Z,91.30
2018-11-05T13:24:52.448Z,83.85
2018-11-05T13:27:20.552Z,97.88
2018-11-05T13:29:48.681Z,94.22
2018-11-05T13:32:16.781Z,96.85
2018-11-05T13:34:44.922Z,88.07
2018-11-05T13:37:13.381Z,102.17
2018-11-05T13:39:41.150Z,97.10
2018-11-05T13:42:09.284Z,102.13
2018-11-05T13:44:37.430Z,110.17
2018-11-05T13:47:06.509Z,88.57
2018-11-05T13:49:34.157Z,97.45
2018-11-05T13:52:02.978Z,88.17
2018-11-05T13:54:31.330Z,94.73
2018-11-05T13:56:59.346Z,98.60
2018-11-05T13:59:27.502Z,101.27
2018-11-05T14:01:55.640Z,105.60
2018-11-05T14:04:23.825Z,94.50
2018-11-05T14:06:51.952Z,101.60
2018-11-05T14:09:20.823Z,99.63
2018-11-05T14:11:48.959Z,103.17
2018-11-05T14:14:17.124Z,100.77
2018-11-05T14:16:45.248Z,107.43
2018-11-05T14:19:13.468Z,115.97
2018-11-05T14:21:41.597Z,112.13
2018-11-05T14:24:09.726Z,110.47
2018-11-05T14:26:37.814Z,96.70
2018-11-05T14:29:07.456Z,113.33
2018-11-05T14:31:35.161Z,107.63
2018-11-05T14:34:03.289Z,100.82
2018-11-05T14:36:31.536Z,104.00
2018-11-05T14:38:59.673Z,118.47
2018-11-05T14:41:27.817Z,107.27
2018-11-05T14:43:56.050Z,101.10
2018-11-05T14:46:24.208Z,106.47
2018-11-05T14:48:52.352Z,104.17
2018-11-05T14:51:20.549Z,102.27
2018-11-05T14:53:48.648Z,107.40
2018-11-05T14:56:16.784Z,111.67
2018-11-05T14:58:44.905Z,108.17
2018-11-05T15:01:13.060Z,112.43
2018-11-05T15:03:41.404Z,124.20
2018-11-05T15:06:09.544Z,114.93
2018-11-05T15:08:37.666Z,120.47
2018-11-05T15:11:05.780Z,115.50
2018-11-05T15:13:33.953Z,100.73
2018-11-05T15:16:02.098Z,106.47
2018-11-05T15:18:30.332Z,108.12
2018-11-05T15:20:58.390Z,99.75
2018-11-05T15:23:26.577Z,106.83
2018-11-05T15:25:54.809Z,120.87
2018-11-05T15:28:22.880Z,109.42
2018-11-05T15:31:54.085Z,117.80
2018-11-05T15:34:22.273Z,120.50
2018-11-05T15:36:50.460Z,120.80
2018-11-05T15:39:18.592Z,108.37
2018-11-05T15:41:46.716Z,123.33
2018-11-05T15:44:14.866Z,115.97
2018-11-05T15:46:43.126Z,115.53
2018-11-05T15:49:11.484Z,119.40
2018-11-05T15:51:39.950Z,115.70
2018-11-05T15:54:07.858Z,113.45
2018-11-05T15:56:35.917Z,123.27
2018-11-05T15:59:04.073Z,113.10
2018-11-05T16:01:32.224Z,124.53
2018-11-05T16:04:00.412Z,129.47
2018-11-05T16:06:28.596Z,128.33
2018-11-05T16:08:56.699Z,118.30
2018-11-05T16:11:24.868Z,130.00
2018-11-05T16:13:52.999Z,114.73
2018-11-05T16:16:21.111Z,128.20
2018-11-05T16:18:49.252Z,119.83
2018-11-05T16:21:17.420Z,116.30
2018-11-05T16:23:46.553Z,120.97
2018-11-05T16:26:14.629Z,118.13
2018-11-05T16:28:42.764Z,122.70
2018-11-05T16:31:10.878Z,118.60
2018-11-05T16:33:39.374Z,110.40
2018-11-05T16:36:08.214Z,122.37
2018-11-05T16:38:36.423Z,100.82
2018-11-05T16:41:04.484Z,110.85
2018-11-05T16:43:32.631Z,113.47
2018-11-05T16:46:00.897Z,108.70
2018-11-05T16:48:29.049Z,105.53
2018-11-05T16:50:57.142Z,108.87
2018-11-05T16:53:25.249Z,103.83
2018-11-05T16:55:53.343Z,96.27
2018-11-05T16:58:21.466Z,113.00
2018-11-05T17:00:50.267Z,100.40
2018-11-05T17:03:18.512Z,111.63
2018-11-05T17:05:47.189Z,110.33
2018-11-05T17:08:15.299Z,109.23
2018-11-05T17:10:43.647Z,115.80
2018-11-05T17:13:11.919Z,117.60
2018-11-05T17:15:39.984Z,111.03
2018-11-05T17:18:08.306Z,112.00
2018-11-05T17:20:36.509Z,102.25
2018-11-05T17:23:04.628Z,110.17
2018-11-05T17:25:32.777Z,111.77
2018-11-05T17:28:00.879Z,105.75
2018-11-05T17:30:29.200Z,99.97
2018-11-05T17:32:57.293Z,99.63
2018-11-05T17:35:25.398Z,104.37
2018-11-05T17:37:53.545Z,96.65
2018-11-05T17:40:22.632Z,111.43
2018-11-05T17:42:50.788Z,111.83
2018-11-05T17:45:19.711Z,97.77
2018-11-05T17:47:48.208Z,99.40
2018-11-05T17:50:18.417Z,104.83
2018-11-05T17:52:46.497Z,100.80
2018-11-05T17:55:15.337Z,102.43
2018-11-05T17:57:44.393Z,94.28
2018-11-05T18:00:16.654Z,104.67
2018-11-05T18:02:44.780Z,96.90
2018-11-05T18:05:12.913Z,99.03
2018-11-05T18:07:41.029Z,89.10
2018-11-05T18:10:09.313Z,98.12
2018-11-05T18:12:37.435Z,97.27
2018-11-05T18:15:07.363Z,106.63
2018-11-05T18:17:35.511Z,102.78
2018-11-05T18:20:03.633Z,101.55
2018-11-05T18:22:31.764Z,110.08
2018-11-05T18:24:59.906Z,105.80
2018-11-05T18:27:28.045Z,105.07
2018-11-05T18:29:56.133Z,124.20
2018-11-05T18:32:24.272Z,117.93
2018-11-05T18:34:53.023Z,119.65
2018-11-05T18:37:21.209Z,125.80
2018-11-05T18:39:50.177Z,120.40
2018-11-05T18:42:19.127Z,116.23
2018-11-05T18:44:47.263Z,112.67
2018-11-05T18:47:15.440Z,115.53
2018-11-05T18:49:43.584Z,120.50
2018-11-05T18:52:11.733Z,119.20
2018-11-05T18:54:39.956Z,125.40
2018-11-05T18:57:08.435Z,133.20
2018-11-05T18:59:36.500Z,114.07
2018-11-05T19:02:04.895Z,134.27
2018-11-05T19:04:33.012Z,126.97
2018-11-05T19:07:01.214Z,139.47
2018-11-05T19:09:29.367Z,115.30
2018-11-05T19:11:57.460Z,133.65
2018-11-05T19:14:25.575Z,135.32
2018-11-05T19:16:53.729Z,124.70
2018-11-05T19:19:21.832Z,128.12
2018-11-05T19:21:50.003Z,131.30
2018-11-05T19:24:18.279Z,141.60
2018-11-05T19:26:46.225Z,159.00
2018-11-05T19:29:14.355Z,149.32
2018-11-05T19:31:42.484Z,141.50
2018-11-05T19:34:10.718Z,139.67
2018-11-05T19:36:38.741Z,150.70
2018-11-05T19:39:08.857Z,146.50
2018-11-05T19:41:37.064Z,155.75
2018-11-05T19:44:05.416Z,150.40
2018-11-05T19:46:34.288Z,147.73
2018-11-05T19:49:02.404Z,149.23
2018-11-05T19:51:30.556Z,145.30
2018-11-05T19:53:58.653Z,142.40
2018-11-05T19:56:26.807Z,146.32
2018-11-05T19:58:54.867Z,152.47
2018-11-05T20:01:23.570Z,139.20
2018-11-05T20:03:51.699Z,151.00
2018-11-05T20:06:19.821Z,152.17
2018-11-05T20:08:47.924Z,144.93
2018-11-05T20:11:16.133Z,156.35
2018-11-05T20:13:44.239Z,152.12
2018-11-05T20:16:12.391Z,147.22
2018-11-05T20:18:40.530Z,158.87
2018-11-05T20:21:08.615Z,148.13
2018-11-05T20:23:36.716Z,140.50
2018-11-05T20:26:04.918Z,143.23
2018-11-05T20:28:33.111Z,145.33
2018-11-05T20:31:01.265Z,146.17
2018-11-05T20:33:29.371Z,146.07
2018-11-05T20:35:57.392Z,152.97
2018-11-05T20:38:25.528Z,150.43
2018-11-05T20:40:53.700Z,154.13
2018-11-05T20:43:21.752Z,161.07
2018-11-05T20:45:49.850Z,166.43
2018-11-05T20:48:17.937Z,148.07
2018-11-05T20:50:46.056Z,144.10
2018-11-05T20:53:14.134Z,157.27
2018-11-05T20:55:42.217Z,140.97
2018-11-05T20:58:10.329Z,157.00
2018-11-05T21:00:38.501Z,155.47
2018-11-05T21:03:06.593Z,143.73
2018-11-05T21:05:34.697Z,136.90
2018-11-05T21:08:02.792Z,137.67
2018-11-05T21:10:30.901Z,129.80
2018-11-05T21:12:58.980Z,126.07
2018-11-05T21:15:27.082Z,140.47
2018-11-05T21:17:55.191Z,137.90
2018-11-05T21:20:23.288Z,141.23
2018-11-05T21:22:51.557Z,132.53
2018-11-05T21:25:19.560Z,135.90
2018-11-05T21:27:47.676Z,121.90
2018-11-05T21:30:20.421Z,120.67
2018-11-05T21:32:48.574Z,120.40
2018-11-05T21:35:18.015Z,113.88
2018-11-05T21:37:46.161Z,117.07
2018-11-05T21:40:15.612Z,107.30
2018-11-05T21:42:43.699Z,120.08
2018-11-05T21:45:12.965Z,115.77
2018-11-05T21:47:41.565Z,109.40
2018-11-05T21:50:11.151Z,128.53
2018-11-05T21:52:40.248Z,118.62
2018-11-05T21:55:08.770Z,117.53
2018-11-05T21:57:37.838Z,106.43
2018-11-05T22:00:09.196Z,121.90
2018-11-05T22:02:42.644Z,96.65
2018-11-05T22:05:10.736Z,104.90
2018-11-05T22:07:38.844Z,115.30
2018-11-05T22:10:07.037Z,113.83
2018-11-05T22:12:35.343Z,97.57
2018-11-05T22:15:03.728Z,131.67
2018-11-05T22:17:31.797Z,109.37
2018-11-05T22:19:59.904Z,132.67
2018-11-05T22:22:27.981Z,143.90
2018-11-05T22:24:56.065Z,136.10
2018-11-05T22:27:24.169Z,120.20
2018-11-05T22:29:52.256Z,115.87
2018-11-05T22:32:20.331Z,117.47
2018-11-05T22:34:48.452Z,116.50
2018-11-05T22:37:16.592Z,114.07
2018-11-05T22:39:44.663Z,118.90
2018-11-05T22:42:12.768Z,125.70
2018-11-05T22:44:40.872Z,129.07
2018-11-05T22:47:08.977Z,105.10
2018-11-05T22:49:37.304Z,108.40
2018-11-05T22:52:06.181Z,98.80
2018-11-05T22:54:34.291Z,104.07
2018-11-05T22:57:02.395Z,102.93
2018-11-05T22:59:30.480Z,110.30
2018-11-05T23:01:58.608Z,104.73
2018-11-05T23:04:26.752Z,106.40
2018-11-05T23:06:54.880Z,94.47
2018-11-05T23:09:23.340Z,105.67
2018-11-05T23:11:51.446Z,105.03
2018-11-05T23:14:19.578Z,121.23
2018-11-05T23:16:47.664Z,88.97
2018-11-05T23:19:15.748Z,96.87
2018-11-05T23:21:43.840Z,85.97
2018-11-05T23:24:11.994Z,118.27
2018-11-05T23:26:40.143Z,93.60
2018-11-05T23:29:08.257Z,89.10
2018-11-05T23:31:36.328Z,107.27
2018-11-05T23:34:04.444Z,116.07
2018-11-05T23:36:32.567Z,111.93
2018-11-05T23:39:00.688Z,101.10
2018-11-05T23:41:28.758Z,98.65
2018-11-05T23:43:56.844Z,100.63
2018-11-05T23:46:25.076Z,89.80
2018-11-05T23:48:53.226Z,92.47
2018-11-05T23:51:21.317Z,115.82
2018-11-05T23:53:49.539Z,102.50
2018-11-05T23:56:17.662Z,118.53
2018-11-05T23:58:45.768Z,104.83
